Time;durP1;ratioP1;P1;durP2;ratioP2;P2;SDS_P1;SDS_P2;PMS_P1;PMS_P2;Temp;Humidity;BMP_temperature;BMP_pressure;BME280_temperature;BME280_humidity;BME280_pressure;Samples;Min_cycle;Max_cycle;Signal;HPM_P1;HPM_P2
2021/12/04 00:02:25;;;;;;;11.38;8.20;;;;;;;3.70;95.15;99992.63;5093450;28;20493;-64
2021/12/04 00:04:53;;;;;;;11.85;9.05;;;;;;;3.66;95.59;99989.03;5093759;28;20077;-63
2021/12/04 00:07:21;;;;;;;14.02;8.93;;;;;;;3.67;95.93;99980.34;5075438;28;20474;-63
2021/12/04 00:09:50;;;;;;;14.82;8.32;;;;;;;3.66;95.47;99986.44;5093531;28;20039;-64
2021/12/04 00:12:17;;;;;;;10.25;8.27;;;;;;;3.68;96.10;99968.16;5093460;28;20031;-63
2021/12/04 00:14:43;;;;;;;10.32;8.38;;;;;;;3.68;95.53;99968.16;5093143;28;20118;-63
2021/12/04 00:17:09;;;;;;;16.33;8.88;;;;;;;3.67;95.42;99953.34;5093718;28;20055;-64
2021/12/04 00:19:35;;;;;;;16.23;8.88;;;;;;;3.67;95.35;99943.78;5093593;28;20469;-64
2021/12/04 00:22:01;;;;;;;12.40;8.93;;;;;;;3.68;95.50;99944.66;5093204;28;20032;-64
2021/12/04 00:24:27;;;;;;;11.75;8.02;;;;;;;3.67;95.67;99935.94;5093205;28;20054;-63
2021/12/04 00:26:53;;;;;;;12.07;9.23;;;;;;;3.71;94.90;99942.13;5092581;28;20024;-64
2021/12/04 00:29:20;;;;;;;10.75;7.88;;;;;;;3.71;95.12;99935.16;5075363;28;20048;-64
2021/12/04 00:31:49;;;;;;;10.90;7.55;;;;;;;3.73;94.43;99941.31;5093554;28;20052;-63
2021/12/04 00:34:18;;;;;;;12.43;8.68;;;;;;;3.74;95.04;99943.09;5093412;28;20024;-64
2021/12/04 00:50:07;;;;;;;9.90;8.60;;;;;;;3.73;94.67;99932.63;5093399;28;20055;-63
2021/12/04 00:52:32;;;;;;;12.40;8.60;;;;;;;3.73;94.80;99923.03;5093032;28;20474;-64
2021/12/04 00:54:58;;;;;;;10.25;8.35;;;;;;;3.74;95.06;99919.56;5092938;28;20107;-63
2021/12/04 00:57:24;;;;;;;11.35;8.30;;;;;;;3.74;95.17;99923.91;5093178;28;20098;-63
2021/12/04 00:59:49;;;;;;;8.85;7.15;;;;;;;3.75;95.13;99921.34;5092909;28;20020;-64
2021/12/04 01:02:20;;;;;;;9.77;8.10;;;;;;;3.74;95.26;99924.81;5093042;28;20031;-63
2021/12/04 01:04:46;;;;;;;9.45;8.10;;;;;;;3.72;95.45;99922.97;5092947;28;20024;-64
2021/12/04 01:07:12;;;;;;;8.90;7.40;;;;;;;3.74;95.04;99934.38;5092884;28;20046;-63
2021/12/04 01:09:37;;;;;;;9.43;7.43;;;;;;;3.74;95.64;99930.03;5092766;28;20035;-63
2021/12/04 01:12:04;;;;;;;12.70;7.90;;;;;;;3.75;94.83;99930.91;5092735;28;20526;-64
2021/12/04 01:14:31;;;;;;;10.75;7.85;;;;;;;3.75;95.50;99933.50;5092811;28;20036;-63
2021/12/04 01:16:58;;;;;;;9.82;7.75;;;;;;;3.75;95.26;99928.28;5092795;28;20028;-63
2021/12/04 01:19:25;;;;;;;10.23;7.72;;;;;;;3.75;94.97;99933.50;5092859;28;20492;-63
2021/12/04 01:21:53;;;;;;;9.23;8.15;;;;;;;3.77;95.61;99934.44;5074971;28;20040;-63
2021/12/04 01:24:19;;;;;;;11.98;8.27;;;;;;;3.76;95.44;99936.16;5092445;28;20036;-62
2021/12/04 01:26:46;;;;;;;9.50;7.57;;;;;;;3.78;94.97;99927.50;5092858;28;20024;-63
2021/12/04 01:29:16;;;;;;;12.27;7.45;;;;;;;3.79;95.66;99927.50;5092631;28;20103;-63
2021/12/04 01:31:42;;;;;;;11.63;7.82;;;;;;;3.78;95.61;99928.38;5092569;28;20039;-63
2021/12/04 01:34:07;;;;;;;9.82;7.28;;;;;;;3.81;95.17;99924.94;5092557;28;20040;-64
2021/12/04 01:36:33;;;;;;;9.65;7.53;;;;;;;3.81;95.44;99915.34;5092760;28;20543;-63
2021/12/04 01:38:59;;;;;;;11.18;7.65;;;;;;;3.84;94.97;99912.81;5095554;28;20016;-64
2021/12/04 01:41:25;;;;;;;10.98;7.55;;;;;;;3.81;95.15;99904.91;5096327;28;20020;-63
2021/12/04 01:43:51;;;;;;;9.57;8.07;;;;;;;3.85;94.62;99913.69;5096447;28;20024;-63
2021/12/04 01:46:16;;;;;;;10.82;7.65;;;;;;;3.85;95.11;99916.31;5096250;28;20031;-63
2021/12/04 01:48:42;;;;;;;10.73;8.35;;;;;;;3.84;95.19;99923.28;5096428;28;20021;-63
2021/12/04 01:51:08;;;;;;;10.07;8.43;;;;;;;3.86;95.39;99916.38;5096214;28;20478;-63
2021/12/04 01:53:35;;;;;;;10.68;8.52;;;;;;;3.85;94.88;99908.47;5095981;28;20508;-64
2021/12/04 01:56:01;;;;;;;9.65;8.65;;;;;;;3.88;94.38;99913.78;5096222;28;20020;-63
2021/12/04 01:58:29;;;;;;;13.80;9.00;;;;;;;3.88;95.23;99905.94;5095941;28;20035;-63
2021/12/04 02:00:54;;;;;;;13.93;8.43;;;;;;;3.88;94.77;99904.19;5077869;28;20039;-62
2021/12/04 02:03:21;;;;;;;10.07;8.48;;;;;;;3.86;95.07;99897.19;5095923;28;20028;-63
2021/12/04 02:05:48;;;;;;;10.02;8.13;;;;;;;3.90;94.96;99904.25;5096022;28;20028;-63
2021/12/04 02:08:16;;;;;;;10.75;8.85;;;;;;;3.90;95.13;99902.53;5095788;28;20107;-63
2021/12/04 02:10:42;;;;;;;13.60;8.23;;;;;;;3.93;94.95;99912.13;5095880;28;20024;-63
2021/12/04 02:13:08;;;;;;;10.90;9.02;;;;;;;3.93;94.60;99892.09;5095819;28;20035;-63
2021/12/04 02:15:33;;;;;;;10.70;8.50;;;;;;;3.92;94.52;99887.75;5095715;28;20103;-63
2021/12/04 02:18:02;;;;;;;12.63;8.93;;;;;;;3.94;95.31;99886.06;5095773;28;20016;-63
2021/12/04 02:20:31;;;;;;;10.63;8.50;;;;;;;3.94;95.38;99869.47;5095677;28;20028;-64
2021/12/04 02:22:57;;;;;;;11.35;8.32;;;;;;;3.96;95.18;99863.44;5095355;28;20032;-63
2021/12/04 02:25:23;;;;;;;10.77;8.45;;;;;;;3.96;94.43;99852.09;5095415;28;20048;-64
2021/12/04 02:27:49;;;;;;;11.50;8.43;;;;;;;3.97;94.58;99844.28;5095731;28;20070;-63
2021/12/04 02:30:21;;;;;;;11.23;8.43;;;;;;;3.98;94.68;99838.22;5095534;28;20024;-63
2021/12/04 02:32:47;;;;;;;9.80;8.10;;;;;;;4.00;94.69;99844.34;5095438;28;20028;-63
2021/12/04 02:35:13;;;;;;;10.82;7.75;;;;;;;4.00;94.11;99838.25;5095749;28;20385;-63
2021/12/04 02:37:40;;;;;;;13.23;8.07;;;;;;;4.02;94.57;99836.53;5095163;28;20039;-63
2021/12/04 02:40:09;;;;;;;12.77;8.57;;;;;;;3.92;94.37;99816.31;5095501;28;20051;-64
2021/12/04 02:42:40;;;;;;;10.70;9.05;;;;;;;3.99;94.87;99832.16;5095178;28;20024;-63
2021/12/04 02:45:09;;;;;;;12.40;8.80;;;;;;;3.99;94.30;99821.69;5095068;28;20030;-63
2021/12/04 02:47:41;;;;;;;11.63;8.80;;;;;;;3.98;94.55;99822.56;5095337;28;20133;-63
2021/12/04 02:50:09;;;;;;;11.13;8.50;;;;;;;3.97;94.14;99825.13;5094199;28;20466;-64
2021/12/04 02:52:34;;;;;;;10.32;8.23;;;;;;;4.00;94.52;99827.81;5095426;28;20111;-63
2021/12/04 02:55:00;;;;;;;12.20;8.65;;;;;;;4.00;93.73;99818.22;5094898;28;20063;-63
2021/12/04 02:57:27;;;;;;;11.32;8.35;;;;;;;4.02;94.22;99828.69;5095008;28;20020;-63
2021/12/04 02:59:53;;;;;;;10.38;7.70;;;;;;;3.99;94.21;99820.81;5095090;28;20048;-63
2021/12/04 03:02:23;;;;;;;9.70;7.53;;;;;;;3.99;94.28;99818.19;5095037;28;20043;-63
2021/12/04 03:04:51;;;;;;;11.77;7.53;;;;;;;3.99;94.42;99821.69;5094800;28;20028;-63
2021/12/04 03:07:17;;;;;;;9.75;6.88;;;;;;;4.03;93.96;99822.66;5094675;28;20035;-64
2021/12/04 03:09:43;;;;;;;9.43;7.13;;;;;;;4.02;94.28;99823.47;5094806;28;20367;-63
2021/12/04 03:12:10;;;;;;;7.90;6.25;;;;;;;4.04;93.55;99824.41;5094574;28;20102;-63
2021/12/04 03:14:35;;;;;;;12.95;6.68;;;;;;;4.03;94.07;99819.16;5076501;28;20028;-64
2021/12/04 03:17:02;;;;;;;10.30;6.53;;;;;;;4.06;93.68;99816.56;5094703;28;20074;-63
2021/12/04 03:19:27;;;;;;;8.90;5.63;;;;;;;4.06;93.97;99809.63;5094656;28;20035;-63
2021/12/04 03:21:54;;;;;;;9.25;6.05;;;;;;;4.06;94.22;99800.91;5094227;28;20025;-63
2021/12/04 03:24:20;;;;;;;8.55;5.70;;;;;;;4.08;94.44;99789.63;5094287;28;20075;-63
2021/12/04 03:26:49;;;;;;;7.32;5.22;;;;;;;4.11;93.60;99799.25;5094483;28;20056;-63
2021/12/04 03:29:18;;;;;;;7.28;5.50;;;;;;;4.12;93.99;99794.06;5094397;28;20046;-63
2021/12/04 03:42:32;;;;;;;7.70;4.57;;;;;;;4.12;93.35;99787.97;5093996;28;20071;-62
2021/12/04 03:44:57;;;;;;;7.82;5.45;;;;;;;4.09;93.18;99780.06;5093541;28;20031;-63
2021/12/04 03:47:23;;;;;;;5.40;4.40;;;;;;;4.09;93.91;99780.06;5093995;28;20028;-63
2021/12/04 03:49:50;;;;;;;6.35;4.32;;;;;;;4.09;93.43;99780.94;5094180;28;20133;-63
2021/12/04 03:52:16;;;;;;;7.30;4.55;;;;;;;4.08;93.81;99779.19;5075713;28;20024;-63
2021/12/04 03:54:42;;;;;;;7.43;4.13;;;;;;;4.10;93.28;99771.34;5093846;28;20020;-63
2021/12/04 03:57:10;;;;;;;5.80;4.13;;;;;;;4.12;93.05;99762.69;5093771;28;20035;-63
2021/12/04 03:59:38;;;;;;;5.45;4.22;;;;;;;4.13;93.65;99764.44;5093648;28;20031;-63
2021/12/04 04:02:17;;;;;;;6.43;4.60;;;;;;;4.11;93.23;99755.72;5093467;28;20461;-63
2021/12/04 04:04:43;;;;;;;6.43;4.28;;;;;;;4.12;92.50;99767.06;5093730;28;20020;-63
2021/12/04 04:07:14;;;;;;;5.85;4.20;;;;;;;4.11;92.89;99774.00;5093743;28;20028;-63
2021/12/04 04:09:40;;;;;;;7.63;4.10;;;;;;;4.11;92.75;99773.09;5093629;28;20107;-63
2021/12/04 04:12:06;;;;;;;5.15;4.30;;;;;;;4.11;93.49;99762.66;5093471;28;20103;-63
2021/12/04 04:14:31;;;;;;;6.50;4.22;;;;;;;4.05;92.67;99747.75;5093687;28;20016;-63
2021/12/04 04:16:57;;;;;;;6.07;3.88;;;;;;;4.08;93.21;99755.66;5093574;28;20031;-63
2021/12/04 04:19:24;;;;;;;5.10;3.83;;;;;;;4.08;93.52;99760.88;5093718;28;20599;-63
2021/12/04 04:21:56;;;;;;;7.25;4.40;;;;;;;4.07;93.12;99752.97;5093390;28;20024;-63
2021/12/04 04:24:23;;;;;;;6.22;4.97;;;;;;;4.05;93.47;99739.91;5093276;28;20040;-63
2021/12/04 04:26:50;;;;;;;4.72;3.95;;;;;;;4.05;93.33;99745.13;5093351;28;20024;-63
2021/12/04 04:29:16;;;;;;;5.97;3.78;;;;;;;4.07;93.83;99745.13;5093686;28;20096;-63
2021/12/04 04:31:46;;;;;;;6.72;3.97;;;;;;;4.08;92.79;99746.94;5093205;28;20107;-62
2021/12/04 04:34:19;;;;;;;5.22;4.20;;;;;;;4.09;93.64;99748.69;5093125;28;20031;-63
2021/12/04 04:37:39;;;;;;;6.97;3.88;;;;;;;4.08;93.54;99736.47;5093492;28;20059;-63
2021/12/04 05:01:23;;;;;;;5.15;3.67;;;;;;;4.14;93.38;99737.44;5092969;28;20024;-63
2021/12/04 05:14:35;;;;;;;6.15;3.30;;;;;;;4.22;92.42;99733.25;5097080;28;20032;-63
2021/12/04 05:17:08;;;;;;;5.13;3.28;;;;;;;4.21;92.80;99728.00;5096754;28;20417;-63
2021/12/04 05:19:40;;;;;;;4.38;3.30;;;;;;;4.19;93.01;99717.50;5096838;28;20682;-63
2021/12/04 05:22:06;;;;;;;;;;;;;;;4.26;92.95;99710.66;5097192;28;20462;-63
2021/12/04 05:24:32;;;;;;;4.85;2.90;;;;;;;4.27;92.04;99707.19;5096586;28;20434;-63
2021/12/04 05:26:58;;;;;;;4.45;2.95;;;;;;;4.28;92.69;99714.16;5096655;28;20440;-63
2021/12/04 05:29:23;;;;;;;4.43;3.13;;;;;;;4.30;92.51;99711.59;5096642;28;20540;-63
2021/12/04 05:31:49;;;;;;;3.78;2.97;;;;;;;4.31;91.99;99715.97;5096167;28;20032;-63
2021/12/04 05:34:14;;;;;;;4.15;3.33;;;;;;;4.27;91.95;99708.06;5096099;28;20024;-63
2021/12/04 05:36:40;;;;;;;4.47;3.30;;;;;;;4.29;92.49;99715.94;5078297;28;20089;-63
2021/12/04 05:39:06;;;;;;;4.10;3.10;;;;;;;4.32;92.30;99715.09;5096436;28;20031;-63
2021/12/04 05:41:32;;;;;;;4.28;3.05;;;;;;;4.32;91.99;99707.25;5096274;28;20521;-63
2021/12/04 05:44:03;;;;;;;4.28;3.10;;;;;;;4.32;92.52;99710.75;5096560;28;20052;-63
2021/12/04 05:46:34;;;;;;;4.18;3.00;;;;;;;4.36;92.45;99709.94;5096083;28;20131;-63
2021/12/04 05:49:03;;;;;;;4.95;3.03;;;;;;;4.38;92.56;99710.00;5096155;28;20028;-63
2021/12/04 05:54:29;;;;;;;4.25;2.92;;;;;;;4.41;91.71;99707.41;5096179;28;20122;-63
2021/12/04 05:56:49;;;;;;;5.68;2.90;;;;;;;4.41;92.16;99702.19;5095472;28;20044;-64
2021/12/04 05:59:14;;;;;;;3.50;2.70;;;;;;;4.42;92.21;99698.75;5095995;28;20020;-64
2021/12/04 06:01:40;;;;;;;3.80;3.00;;;;;;;4.38;92.50;99694.31;5095941;28;20118;-63
2021/12/04 06:04:06;;;;;;;5.32;3.22;;;;;;;4.40;91.68;99695.19;5095928;28;20039;-65
2021/12/04 06:06:31;;;;;;;4.20;3.28;;;;;;;4.41;91.97;99695.25;5077741;28;20016;-64
2021/12/04 06:08:57;;;;;;;3.90;2.97;;;;;;;4.42;91.94;99693.50;5095981;28;20027;-64
2021/12/04 06:11:23;;;;;;;5.38;3.10;;;;;;;4.43;92.28;99692.66;5095733;28;20020;-64
2021/12/04 06:13:49;;;;;;;3.70;3.08;;;;;;;4.42;91.69;99697.00;5095945;28;20149;-63
2021/12/04 06:16:15;;;;;;;3.85;3.10;;;;;;;4.44;91.75;99691.78;5095541;28;20107;-63
2021/12/04 06:18:42;;;;;;;3.90;3.15;;;;;;;4.45;91.78;99689.22;5095656;28;20028;-63
2021/12/04 06:23:52;;;;;;;4.65;3.25;;;;;;;4.49;92.20;99688.38;5093564;28;20109;-63
2021/12/04 06:26:17;;;;;;;3.90;3.10;;;;;;;4.48;91.64;99686.63;5095077;28;20405;-63
2021/12/04 06:28:43;;;;;;;3.78;3.03;;;;;;;4.49;91.96;99687.50;5094830;28;20024;-63
2021/12/04 06:31:14;;;;;;;5.00;3.35;;;;;;;4.49;92.01;99683.16;5095193;28;20073;-63
2021/12/04 06:33:45;;;;;;;5.18;3.20;;;;;;;4.51;91.96;99684.06;5095619;28;20031;-63
2021/12/04 06:36:11;;;;;;;4.70;3.30;;;;;;;4.53;91.51;99690.19;5095332;28;20020;-63
2021/12/04 06:38:37;;;;;;;5.53;3.50;;;;;;;4.50;91.70;99689.28;5095260;28;20102;-63
2021/12/04 06:41:04;;;;;;;6.65;3.80;;;;;;;4.50;91.95;99691.91;5095101;28;20489;-63
2021/12/04 06:43:30;;;;;;;4.63;3.30;;;;;;;4.48;91.52;99689.25;5095062;28;20056;-62
2021/12/04 06:46:03;;;;;;;3.83;3.38;;;;;;;4.48;91.63;99696.22;5076885;28;20493;-62
2021/12/04 06:48:39;;;;;;;4.43;3.50;;;;;;;4.45;91.66;99689.22;5095141;28;20028;-64
2021/12/04 06:56:12;;;;;;;5.85;3.85;;;;;;;4.38;91.83;99692.56;5094988;28;20117;-63
2021/12/04 06:58:38;;;;;;;5.28;3.70;;;;;;;4.35;92.89;99689.88;5094944;28;20036;-63
2021/12/04 07:01:06;;;;;;;5.63;3.78;;;;;;;4.37;92.18;99690.81;5094894;28;20024;-63
2021/12/04 07:03:32;;;;;;;4.53;3.65;;;;;;;4.39;92.61;99698.69;5094618;28;20030;-63
2021/12/04 07:05:59;;;;;;;4.60;3.65;;;;;;;4.40;92.28;99698.69;5076617;28;20386;-63
2021/12/04 07:08:25;;;;;;;5.07;3.78;;;;;;;4.40;92.25;99696.06;5094777;28;20038;-63
2021/12/04 07:10:51;;;;;;;4.22;3.53;;;;;;;4.43;91.94;99698.75;5094572;28;20103;-63
2021/12/04 07:13:17;;;;;;;5.68;3.97;;;;;;;4.45;92.01;99690.91;5076521;28;20055;-63
2021/12/04 07:15:45;;;;;;;6.20;4.03;;;;;;;4.46;92.17;99696.19;5076206;28;20028;-63
2021/12/04 07:18:16;;;;;;;4.85;3.97;;;;;;;4.47;91.78;99689.22;5094410;28;20050;-63
2021/12/04 07:20:41;;;;;;;5.53;3.92;;;;;;;4.48;92.22;99691.84;5094656;28;20082;-63
2021/12/04 07:23:07;;;;;;;6.07;4.20;;;;;;;4.49;92.34;99692.72;5094550;28;20028;-63
2021/12/04 07:25:33;;;;;;;39.88;8.38;;;;;;;4.46;92.15;99693.59;5093860;28;20516;-63
2021/12/04 07:27:59;;;;;;;5.18;3.90;;;;;;;4.51;92.81;99698.88;5094334;28;20115;-63
2021/12/04 07:30:24;;;;;;;5.18;4.00;;;;;;;4.52;91.96;99692.78;5075961;28;20381;-63
2021/12/04 07:32:55;;;;;;;5.95;3.83;;;;;;;4.51;92.41;99693.66;5094185;28;20039;-64
2021/12/04 07:35:21;;;;;;;5.05;3.70;;;;;;;4.50;92.47;99686.66;5093889;28;20482;-63
2021/12/04 07:37:46;;;;;;;5.10;4.15;;;;;;;4.44;91.83;99689.16;5094096;28;20063;-63
2021/12/04 07:40:12;;;;;;;7.60;3.97;;;;;;;4.41;92.69;99690.00;5093692;28;20459;-63
2021/12/04 07:42:38;;;;;;;4.63;3.70;;;;;;;4.43;92.92;99690.03;5093711;28;20032;-63
2021/12/04 07:45:05;;;;;;;4.63;3.72;;;;;;;4.41;92.21;99692.63;5075412;28;20016;-63
2021/12/04 07:47:31;;;;;;;5.95;3.50;;;;;;;4.41;92.53;99681.25;5093136;28;20028;-64
2021/12/04 07:49:56;;;;;;;5.00;3.97;;;;;;;4.39;92.52;99665.56;5093494;28;20023;-62
2021/12/04 07:52:22;;;;;;;4.47;3.40;;;;;;;4.41;93.06;99674.31;5093203;28;20035;-63
2021/12/04 07:54:49;;;;;;;4.80;3.88;;;;;;;4.34;92.52;99671.56;5093284;28;20036;-63
2021/12/04 07:57:15;;;;;;;4.70;3.53;;;;;;;4.41;92.53;99676.03;5093120;28;20132;-63
2021/12/04 07:59:41;;;;;;;4.82;3.83;;;;;;;4.42;92.71;99672.59;5093271;28;20098;-63
2021/12/04 08:02:07;;;;;;;5.00;3.85;;;;;;;4.38;92.23;99663.81;5092879;28;20428;-63
2021/12/04 08:04:32;;;;;;;4.82;3.88;;;;;;;4.41;92.37;99665.56;5093072;28;20028;-63
2021/12/04 08:06:58;;;;;;;6.65;4.20;;;;;;;4.43;92.90;99669.97;5093208;28;20035;-63
2021/12/04 08:09:23;;;;;;;6.88;4.40;;;;;;;4.42;92.59;99669.97;5092671;28;20539;-63
2021/12/04 08:11:50;;;;;;;6.88;4.78;;;;;;;4.44;92.64;99676.09;5074686;28;20031;-63
2021/12/04 08:14:17;;;;;;;5.88;4.65;;;;;;;4.47;92.81;99676.16;5074570;28;20415;-63
2021/12/04 08:16:43;;;;;;;6.90;5.10;;;;;;;4.47;92.50;99671.78;5092907;28;20032;-63
2021/12/04 08:19:08;;;;;;;6.90;5.03;;;;;;;4.49;92.62;99663.97;5092970;28;20036;-64
2021/12/04 08:21:35;;;;;;;9.05;5.28;;;;;;;4.49;92.98;99657.00;5093086;28;20391;-63
2021/12/04 08:24:01;;;;;;;7.05;5.22;;;;;;;4.50;92.36;99648.31;5093000;28;20036;-63
2021/12/04 08:26:27;;;;;;;8.60;5.65;;;;;;;4.49;92.07;99645.66;5092492;28;20131;-63
2021/12/04 08:28:56;;;;;;;7.03;5.53;;;;;;;4.48;92.55;99636.06;5092583;28;20122;-63
2021/12/04 08:31:21;;;;;;;8.20;5.95;;;;;;;4.50;92.40;99639.59;5092624;28;20070;-63
2021/12/04 08:33:47;;;;;;;8.25;5.55;;;;;;;4.49;93.04;99633.44;5092612;28;20421;-63
2021/12/04 08:36:12;;;;;;;7.93;5.68;;;;;;;4.51;92.98;99629.13;5092725;28;20023;-63
2021/12/04 08:38:38;;;;;;;7.07;5.47;;;;;;;4.54;93.07;99625.69;5092511;28;20021;-63
2021/12/04 08:41:05;;;;;;;8.13;5.85;;;;;;;4.54;93.13;99625.69;5092285;28;20039;-63
2021/12/04 08:43:31;;;;;;;9.05;5.90;;;;;;;4.55;92.79;99621.34;5092568;28;20077;-62
2021/12/04 08:46:00;;;;;;;8.98;5.63;;;;;;;4.55;93.11;99614.38;5092254;28;20417;-63
2021/12/04 08:48:29;;;;;;;8.05;5.50;;;;;;;4.55;92.56;99611.75;5091913;28;20089;-63
2021/12/04 08:50:55;;;;;;;7.30;5.55;;;;;;;4.55;92.79;99614.38;5074211;28;20119;-63
2021/12/04 08:53:21;;;;;;;8.80;5.72;;;;;;;4.55;92.97;99609.13;5092433;28;20016;-63
2021/12/04 08:55:47;;;;;;;12.88;6.30;;;;;;;4.55;92.78;99611.75;5092204;28;20024;-62
2021/12/04 08:58:15;;;;;;;8.63;5.40;;;;;;;4.54;93.16;99602.16;5092208;28;20036;-63
2021/12/04 09:00:52;;;;;;;8.80;6.05;;;;;;;4.55;93.38;99605.66;5074203;28;20598;-63
2021/12/04 09:03:28;;;;;;;9.10;5.95;;;;;;;4.58;92.18;99603.06;5073977;28;20177;-62
2021/12/04 09:05:56;;;;;;;7.47;5.30;;;;;;;4.60;92.91;99601.34;5092361;28;20020;-63
2021/12/04 09:08:24;;;;;;;8.60;5.80;;;;;;;4.51;92.51;99596.88;5092039;28;20039;-63
2021/12/04 09:10:50;;;;;;;12.93;8.63;;;;;;;4.65;93.10;99620.63;5092280;28;20086;-63
2021/12/04 09:13:17;;;;;;;9.85;6.53;;;;;;;4.64;92.46;99614.50;5092381;28;20485;-63
2021/12/04 09:15:45;;;;;;;8.85;5.35;;;;;;;4.68;92.10;99618.06;5092124;28;20031;-63
2021/12/04 09:18:12;;;;;;;7.18;4.70;;;;;;;4.70;92.79;99611.09;5092027;28;20466;-63
2021/12/04 09:20:38;;;;;;;6.35;4.78;;;;;;;4.70;92.24;99614.56;5092336;28;20071;-63
2021/12/04 09:23:06;;;;;;;9.10;5.10;;;;;;;4.69;92.44;99604.97;5091897;28;20024;-62
2021/12/04 09:25:33;;;;;;;6.57;4.70;;;;;;;4.72;92.24;99601.53;5091872;28;20036;-63
2021/12/04 09:31:23;;;;;;;4.85;3.55;;;;;;;4.74;91.71;99603.28;5009801;28;20045;-63
2021/12/04 10:33:16;;;;;;;12.05;5.75;;;;;;;4.93;91.73;99549.47;5094851;28;20178;-62
2021/12/04 10:35:44;;;;;;;7.03;5.43;;;;;;;4.95;91.98;99541.63;5094787;28;20024;-63
2021/12/04 10:38:19;;;;;;;12.02;6.70;;;;;;;4.92;91.78;99531.13;5076768;28;20032;-62
2021/12/04 10:40:48;;;;;;;9.40;6.60;;;;;;;4.95;92.24;99528.56;5094601;28;20393;-64
2021/12/04 10:43:22;;;;;;;7.20;5.72;;;;;;;4.95;91.75;99515.47;5094938;28;20028;-64
2021/12/04 10:45:54;;;;;;;9.05;6.50;;;;;;;5.00;92.00;99519.00;5094312;28;20512;-63
2021/12/04 10:48:24;;;;;;;12.13;7.97;;;;;;;5.01;91.77;99524.28;5094708;28;20487;-64
2021/12/04 10:53:25;;;;;;;10.73;6.55;;;;;;;5.05;91.91;99506.84;5094677;28;20032;-63
2021/12/04 10:56:11;;;;;;;11.70;7.10;;;;;;;5.08;92.08;99503.38;5094491;28;20016;-63
2021/12/04 11:03:56;;;;;;;10.40;6.47;;;;;;;5.10;92.06;99491.22;5094151;28;20028;-62
2021/12/04 11:06:43;;;;;;;7.90;5.80;;;;;;;5.09;91.64;99481.56;5094407;28;20081;-62
2021/12/04 11:41:43;;;;;;;10.23;7.03;;;;;;;5.31;91.29;99436.44;5093880;28;20047;-62
2021/12/04 11:44:12;;;;;;;;;;;;;;;5.37;91.29;99431.25;5075599;28;20028;-63
2021/12/04 11:49:11;;;;;;;9.27;6.80;;;;;;;5.35;90.92;99429.47;5093279;28;20364;-62
2021/12/04 11:51:45;;;;;;;9.40;7.30;;;;;;;5.37;91.22;99426.00;5093379;28;20066;-62
2021/12/04 11:54:12;;;;;;;10.50;7.55;;;;;;;5.39;90.70;99426.00;5075097;28;20047;-62
2021/12/04 11:56:39;;;;;;;9.52;6.53;;;;;;;5.37;90.69;99420.75;5093368;28;20027;-62
2021/12/04 11:59:06;;;;;;;8.15;6.28;;;;;;;5.38;90.58;99412.03;5093381;28;20355;-62
2021/12/04 12:01:34;;;;;;;9.98;6.60;;;;;;;5.43;91.34;99412.06;5092950;28;20020;-65
2021/12/04 12:04:07;;;;;;;8.57;6.03;;;;;;;5.45;91.42;99410.34;5093093;28;20035;-65
2021/12/04 12:06:37;;;;;;;;;;;;;;;5.49;90.92;99409.53;5093709;28;20531;-62
2021/12/04 12:09:08;;;;;;;6.95;5.50;;;;;;;5.49;90.90;99409.53;5093118;28;19908;-64
2021/12/04 12:11:36;;;;;;;7.13;5.60;;;;;;;5.46;90.84;99410.34;5092983;28;20020;-62
2021/12/04 12:14:10;;;;;;;7.13;5.75;;;;;;;5.43;91.10;99405.09;5092943;28;20085;-64
2021/12/04 12:16:46;;;;;;;9.50;6.20;;;;;;;5.41;91.06;99398.09;5074420;28;20032;-63
2021/12/04 12:19:25;;;;;;;7.65;5.90;;;;;;;5.43;90.87;99396.34;5092913;28;20020;-63
2021/12/04 12:33:14;;;;;;;9.65;7.10;;;;;;;5.40;91.88;99384.13;5010714;28;20084;-64
2021/12/04 12:36:14;;;;;;;10.30;7.47;;;;;;;5.42;92.01;99385.00;5010771;28;20110;-63
2021/12/04 12:38:52;;;;;;;9.70;6.60;;;;;;;5.42;92.29;99394.59;5010648;28;20033;-64
2021/12/04 12:41:38;;;;;;;8.82;6.20;;;;;;;5.43;92.11;99385.88;5010448;28;20128;-64
2021/12/04 12:44:27;;;;;;;9.20;6.55;;;;;;;5.41;92.34;99398.97;5010541;28;20530;-65
2021/12/04 12:46:56;;;;;;;10.70;6.03;;;;;;;5.35;93.13;99396.28;5010695;28;20041;-63
2021/12/04 12:49:34;;;;;;;9.10;6.20;;;;;;;5.34;92.90;99412.88;5010526;28;20042;-64
2021/12/04 12:52:07;;;;;;;8.23;5.85;;;;;;;5.32;93.33;99398.03;5010771;28;20117;-65
2021/12/04 12:54:38;;;;;;;11.10;6.85;;;;;;;5.30;93.83;99399.75;5010722;28;20117;-65
2021/12/04 12:57:22;;;;;;;11.93;7.18;;;;;;;5.26;93.58;99394.47;5010573;28;20030;-65
2021/12/04 13:11:37;;;;;;;9.05;6.32;;;;;;;5.26;93.90;99396.22;5010526;28;20029;-65
2021/12/04 13:14:09;;;;;;;9.10;6.72;;;;;;;5.32;94.40;99388.41;5072297;28;20040;-65
2021/12/04 13:16:35;;;;;;;10.88;7.15;;;;;;;5.32;94.07;99387.56;5072092;28;20450;-65
2021/12/04 13:19:06;;;;;;;10.15;7.63;;;;;;;5.31;94.44;99384.06;5072182;28;20033;-65
2021/12/04 13:21:33;;;;;;;12.55;8.70;;;;;;;5.31;93.99;99394.53;5072115;28;20058;-65
2021/12/04 13:24:00;;;;;;;12.10;8.80;;;;;;;5.24;94.28;99377.88;5054063;28;20367;-66
2021/12/04 13:26:35;;;;;;;13.40;8.45;;;;;;;5.34;94.49;99385.81;5072360;28;20070;-64
2021/12/04 13:29:04;;;;;;;13.20;9.05;;;;;;;5.35;94.43;99382.31;5071969;28;20044;-64
2021/12/04 13:31:30;;;;;;;11.93;8.80;;;;;;;5.38;94.60;99384.97;5071991;28;20031;-65
2021/12/04 13:33:56;;;;;;;12.50;8.88;;;;;;;5.38;94.31;99379.72;5073160;28;20028;-66
2021/12/04 13:36:26;;;;;;;13.20;9.73;;;;;;;5.40;94.07;99378.03;5076044;28;20021;-66
2021/12/04 13:39:14;;;;;;;14.18;9.23;;;;;;;5.42;94.26;99371.03;5075786;28;20040;-66
2021/12/04 13:41:41;;;;;;;13.93;9.20;;;;;;;5.43;93.67;99376.28;5075619;28;20460;-66
2021/12/04 13:44:19;;;;;;;13.52;9.90;;;;;;;5.42;94.32;99374.53;5075604;28;20024;-66
2021/12/04 13:46:46;;;;;;;14.45;9.57;;;;;;;5.46;94.33;99371.06;5075657;28;20108;-66
2021/12/04 13:49:14;;;;;;;13.55;9.85;;;;;;;5.48;94.25;99377.22;5075615;28;20024;-66
2021/12/04 13:51:40;;;;;;;13.10;9.10;;;;;;;5.50;94.02;99374.59;5075684;28;20059;-66
2021/12/04 13:54:06;;;;;;;13.93;9.90;;;;;;;5.49;94.18;99378.09;5075392;28;20056;-66
2021/12/04 13:56:33;;;;;;;14.60;10.23;;;;;;;5.49;94.04;99376.34;5075642;28;20082;-67
2021/12/04 13:59:02;;;;;;;14.15;9.73;;;;;;;5.51;93.70;99373.72;5057426;28;20074;-64
2021/12/04 14:01:30;;;;;;;13.48;9.45;;;;;;;5.52;94.06;99370.22;5075170;28;20029;-66
2021/12/04 14:04:07;;;;;;;14.27;9.52;;;;;;;5.56;93.80;99371.13;5075803;28;20323;-65
2021/12/04 14:06:33;;;;;;;13.48;9.45;;;;;;;5.57;93.60;99368.53;5074932;28;20035;-64
2021/12/04 14:09:07;;;;;;;12.85;8.55;;;;;;;5.59;93.53;99371.16;5075322;28;20029;-64
2021/12/04 14:11:40;;;;;;;11.55;8.68;;;;;;;5.59;93.44;99377.28;5068189;28;20095;-63
2021/12/04 14:14:17;;;;;;;12.52;9.18;;;;;;;5.59;93.78;99379.03;5061951;28;20029;-62
2021/12/04 14:16:45;;;;;;;13.35;8.73;;;;;;;5.59;93.44;99377.28;5070057;28;20111;-65
2021/12/04 14:19:25;;;;;;;12.75;8.65;;;;;;;5.61;94.09;99380.78;5056048;28;20032;-66
2021/12/04 14:22:03;;;;;;;11.80;8.60;;;;;;;5.63;93.84;99371.19;5054877;28;20133;-63
2021/12/04 14:24:30;;;;;;;13.05;8.63;;;;;;;5.66;93.80;99372.97;5059833;28;20029;-63
2021/12/04 14:26:58;;;;;;;13.30;8.50;;;;;;;5.67;94.03;99383.44;5063654;28;20328;-65
2021/12/04 14:29:27;;;;;;;12.70;8.95;;;;;;;5.68;93.78;99384.31;5074764;28;20506;-67
2021/12/04 14:31:53;;;;;;;13.80;8.85;;;;;;;5.67;93.62;99383.44;5054900;28;20073;-65
2021/12/04 14:34:23;;;;;;;13.02;9.23;;;;;;;5.67;93.64;99391.31;5036872;28;20121;-65
2021/12/04 14:36:59;;;;;;;13.63;8.40;;;;;;;5.69;93.69;99392.19;5054573;28;20033;-65
2021/12/04 14:39:25;;;;;;;10.90;8.40;;;;;;;5.69;93.77;99396.53;5057122;28;20043;-68
2021/12/04 14:41:57;;;;;;;12.13;8.70;;;;;;;5.68;93.63;99403.53;5058586;28;20077;-65
2021/12/04 14:44:23;;;;;;;11.18;8.27;;;;;;;5.67;93.57;99407.03;5054158;28;20060;-63
2021/12/04 14:46:49;;;;;;;12.57;8.48;;;;;;;5.68;93.68;99415.75;5064533;28;20056;-64
2021/12/04 14:49:15;;;;;;;11.15;7.72;;;;;;;5.65;93.38;99421.88;5074427;28;20058;-63
2021/12/04 14:51:40;;;;;;;9.50;7.15;;;;;;;5.65;93.61;99419.25;5064648;28;20025;-65
2021/12/04 14:54:07;;;;;;;9.20;6.30;;;;;;;5.65;93.06;99428.84;5064770;28;20025;-66
2021/12/04 14:56:33;;;;;;;11.88;7.05;;;;;;;5.64;92.99;99430.59;5074437;28;20428;-68
2021/12/04 14:59:01;;;;;;;9.35;6.35;;;;;;;5.63;92.86;99435.81;5071719;28;20074;-67
2021/12/04 15:01:33;;;;;;;9.90;6.32;;;;;;;5.62;92.66;99434.06;5074159;28;20033;-67